createdAt,value
2017-09-23T04:33:34.926Z,2
2017-09-23T04:34:05.845Z,0
2017-09-23T04:34:35.902Z,2
2017-09-23T04:40:11.248Z,5
2017-09-23T04:43:13.880Z,8
2017-09-23T04:45:15.728Z,10
2017-09-23T04:46:46.635Z,13
2017-09-23T04:47:47.557Z,15
2017-09-23T04:48:48.480Z,17
2017-09-23T04:49:49.381Z,20
2017-09-23T04:50:20.175Z,22
2017-09-23T04:51:21.111Z,25
2017-09-23T04:51:51.166Z,28
2017-09-23T04:52:22.051Z,30
2017-09-23T04:52:52.069Z,32
2017-09-23T04:53:22.876Z,35
2017-09-23T04:53:52.966Z,37
2017-09-23T04:54:23.820Z,40
2017-09-23T04:54:53.797Z,43
2017-09-23T04:55:24.733Z,45
2017-09-23T04:55:54.756Z,47
2017-09-23T04:56:25.574Z,52
2017-09-23T04:56:55.616Z,55
2017-09-23T04:57:26.525Z,60
2017-09-23T04:57:56.532Z,62
2017-09-23T04:58:27.399Z,67
2017-09-23T04:58:57.663Z,70
2017-09-23T04:59:28.312Z,75
2017-09-23T04:59:58.293Z,80
2017-09-23T05:00:29.197Z,85
2017-09-23T05:00:59.251Z,90
2017-09-23T05:01:30.118Z,95
2017-09-23T05:02:00.141Z,98
2017-09-23T05:02:31.006Z,103
2017-09-23T05:03:00.995Z,110
2017-09-23T05:03:31.860Z,115
2017-09-23T05:04:02.014Z,120
2017-09-23T05:04:32.762Z,125
2017-09-23T05:05:02.766Z,130
2017-09-23T05:05:33.707Z,137
2017-09-23T05:06:03.663Z,145
2017-09-23T05:06:34.590Z,150
2017-09-23T05:07:04.571Z,158
2017-09-23T05:07:35.499Z,163
2017-09-23T05:08:05.495Z,170
2017-09-23T05:08:36.367Z,180
2017-09-23T05:09:06.410Z,187
2017-09-23T05:09:37.268Z,197
2017-09-23T05:10:07.255Z,208
2017-09-23T05:10:38.184Z,218
2017-09-23T05:11:08.159Z,230
2017-09-23T05:11:39.031Z,240
2017-09-23T05:12:09.112Z,253
2017-09-23T05:12:39.988Z,262
2017-09-23T05:13:10.011Z,270
2017-09-23T05:13:40.836Z,277
2017-09-23T05:14:10.904Z,283
2017-09-23T05:14:41.783Z,290
2017-09-23T05:15:11.799Z,295
2017-09-23T05:15:42.627Z,302
2017-09-23T05:16:12.691Z,310
2017-09-23T05:16:43.544Z,317
2017-09-23T05:17:13.633Z,322
2017-09-23T05:17:44.443Z,332
2017-09-23T05:18:14.474Z,343
2017-09-23T05:18:45.351Z,352
2017-09-23T05:19:15.483Z,365
2017-09-23T05:19:46.273Z,377
2017-09-23T05:20:16.319Z,392
2017-09-23T05:20:47.124Z,410
2017-09-23T05:21:17.146Z,428
2017-09-23T05:21:48.077Z,448
2017-09-23T05:22:18.082Z,467
2017-09-23T05:22:48.991Z,485
2017-09-23T05:23:18.974Z,505
2017-09-23T05:23:49.836Z,525
2017-09-23T05:24:19.917Z,542
2017-09-23T05:24:50.766Z,557
2017-09-23T05:25:20.792Z,570
2017-09-23T05:25:51.648Z,583
2017-09-23T05:26:21.687Z,592
2017-09-23T05:26:52.538Z,602
2017-09-23T05:27:22.635Z,610
2017-09-23T05:27:53.482Z,620
2017-09-23T05:28:23.456Z,630
2017-09-23T05:28:54.348Z,640
2017-09-23T05:29:24.451Z,647
2017-09-23T05:29:55.263Z,658
2017-09-23T05:30:25.260Z,665
2017-09-23T05:30:56.100Z,677
2017-09-23T05:31:26.123Z,688
2017-09-23T05:31:57.042Z,698
2017-09-23T05:32:27.052Z,710
2017-09-23T05:32:57.959Z,725
2017-09-23T05:33:27.942Z,740
2017-09-23T05:33:58.949Z,758
2017-09-23T05:34:28.939Z,775
2017-09-23T05:34:59.727Z,793
2017-09-23T05:35:29.784Z,808
2017-09-23T05:36:00.586Z,825
2017-09-23T05:36:30.678Z,842
2017-09-23T05:37:01.546Z,863
2017-09-23T05:37:31.546Z,880
2017-09-23T05:38:02.438Z,900
2017-09-23T05:38:32.458Z,917
2017-09-23T05:39:03.342Z,932
2017-09-23T05:39:33.398Z,947
2017-09-23T05:40:04.194Z,958
2017-09-23T05:40:34.262Z,962
2017-09-23T05:41:05.082Z,973
2017-09-23T05:41:35.117Z,980
2017-09-23T05:42:05.973Z,992
2017-09-23T05:42:36.068Z,1003
2017-09-23T05:43:06.880Z,1012
2017-09-23T05:43:36.932Z,1025
2017-09-23T05:44:07.833Z,1037
2017-09-23T05:44:37.894Z,1050
2017-09-23T05:45:08.685Z,1065
2017-09-23T05:45:38.750Z,1082
2017-09-23T05:46:09.617Z,1100
2017-09-23T05:46:39.664Z,1115
2017-09-23T05:47:10.512Z,1125
2017-09-23T05:47:40.585Z,1135
2017-09-23T05:48:11.436Z,1147
2017-09-23T05:48:41.453Z,1157
2017-09-23T05:49:12.333Z,1168
2017-09-23T05:49:42.387Z,1180
2017-09-23T05:50:13.187Z,1198
2017-09-23T05:50:43.269Z,1220
2017-09-23T05:51:14.108Z,1245
2017-09-23T05:51:44.118Z,1273
2017-09-23T05:52:15.003Z,1305
2017-09-23T05:52:45.043Z,1340
2017-09-23T05:53:15.931Z,1380
2017-09-23T05:53:45.962Z,1420
2017-09-23T05:54:16.768Z,1457
2017-09-23T05:54:46.845Z,1495
2017-09-23T05:55:17.734Z,1535
2017-09-23T05:55:47.753Z,1570
2017-09-23T05:56:18.574Z,1600
2017-09-23T05:56:48.627Z,1627
2017-09-23T05:57:19.514Z,1655
2017-09-23T05:57:49.524Z,1678
2017-09-23T05:58:20.378Z,1700
2017-09-23T05:58:50.443Z,1723
2017-09-23T05:59:21.305Z,1745
2017-09-23T05:59:51.410Z,1762
2017-09-23T06:00:22.254Z,1785
2017-09-23T06:00:52.268Z,1810
2017-09-23T06:01:23.120Z,1840
2017-09-23T06:01:53.140Z,1870
2017-09-23T06:02:24.108Z,1905
2017-09-23T06:02:54.104Z,1940
2017-09-23T06:03:24.941Z,1978
2017-09-23T06:03:55.036Z,2015
2017-09-23T06:04:25.904Z,2053
2017-09-23T06:04:55.986Z,2083
2017-09-23T06:05:26.847Z,2113
2017-09-23T06:05:56.853Z,2140
2017-09-23T06:06:27.746Z,2162
2017-09-23T06:06:57.749Z,2185
2017-09-23T06:07:28.620Z,2205
2017-09-23T06:07:58.623Z,2218
2017-09-23T06:08:29.581Z,2230
2017-09-23T06:08:59.581Z,2235
2017-09-23T06:09:30.461Z,2240
2017-09-23T06:10:00.722Z,2245
2017-09-23T06:10:31.340Z,2250
2017-09-23T06:11:01.375Z,2255
2017-09-23T06:11:32.201Z,2258
2017-09-23T06:12:02.221Z,2255
2017-09-23T06:12:33.111Z,2250
2017-09-23T06:13:03.168Z,2240
2017-09-23T06:13:34.014Z,2235
2017-09-23T06:14:04.075Z,2222
2017-09-23T06:14:34.909Z,2213
2017-09-23T06:15:05.001Z,2200
2017-09-23T06:15:35.840Z,2190
2017-09-23T06:16:05.860Z,2182
2017-09-23T06:16:36.779Z,2173
2017-09-23T06:17:06.779Z,2165
2017-09-23T06:17:37.618Z,2158
2017-09-23T06:18:07.678Z,2147
2017-09-23T06:18:38.553Z,2135
2017-09-23T06:19:08.595Z,2128
2017-09-23T06:19:39.451Z,2120
2017-09-23T06:20:09.505Z,2117
2017-09-23T06:21:10.373Z,2115
2017-09-23T06:22:11.311Z,2113
2017-09-23T06:23:12.257Z,2110
2017-09-23T06:24:43.878Z,2113
2017-09-23T06:25:13.969Z,2117
2017-09-23T06:25:44.834Z,2123
2017-09-23T06:26:14.810Z,2130
2017-09-23T06:26:45.722Z,2137
2017-09-23T06:27:15.702Z,2150
2017-09-23T06:27:46.579Z,2162
2017-09-23T06:28:16.681Z,2177
2017-09-23T06:28:47.488Z,2195
2017-09-23T06:29:17.564Z,2218
2017-09-23T06:29:48.432Z,2242
2017-09-23T06:30:18.479Z,2273
2017-09-23T06:30:49.331Z,2302
2017-09-23T06:31:19.357Z,2335
2017-09-23T06:31:50.169Z,2370
2017-09-23T06:32:20.217Z,2400
2017-09-23T06:32:51.127Z,2420
2017-09-23T06:33:21.123Z,2438
2017-09-23T06:33:51.969Z,2447
2017-09-23T06:34:22.176Z,2452
2017-09-23T06:35:23.005Z,2445
2017-09-23T06:35:53.852Z,2430
2017-09-23T06:36:23.856Z,2417
2017-09-23T06:36:54.724Z,2405
2017-09-23T06:37:24.774Z,2398
2017-09-23T06:37:55.571Z,2390
2017-09-23T06:38:25.607Z,2385
2017-09-23T06:38:56.517Z,2387
2017-09-23T06:39:26.568Z,1495
2017-09-23T06:39:57.418Z,2405
2017-09-23T06:40:27.513Z,2423
2017-09-23T06:40:58.333Z,2445
2017-09-23T06:41:28.340Z,2475
2017-09-23T06:41:59.204Z,2512
2017-09-23T06:42:29.234Z,2555
2017-09-23T06:43:00.119Z,2603
2017-09-23T06:43:30.157Z,2655
2017-09-23T06:44:00.995Z,2710
2017-09-23T06:44:31.062Z,2765
2017-09-23T06:45:01.865Z,2822
2017-09-23T06:45:32.046Z,2880
2017-09-23T06:46:02.821Z,2930
2017-09-23T06:46:32.836Z,2978
2017-09-23T06:47:03.709Z,3023
2017-09-23T06:47:33.748Z,3060
2017-09-23T06:48:04.555Z,3100
2017-09-23T06:48:34.614Z,3140
2017-09-23T06:49:05.513Z,3178
2017-09-23T06:49:35.571Z,3217
2017-09-23T06:50:06.415Z,3265
2017-09-23T06:50:36.526Z,3320
2017-09-23T06:51:07.293Z,3383
2017-09-23T06:51:37.335Z,3455
2017-09-23T06:52:08.173Z,3535
2017-09-23T06:52:38.210Z,3623
2017-09-23T06:53:09.058Z,3715
2017-09-23T06:53:39.152Z,3810
2017-09-23T06:54:10.016Z,3905
2017-09-23T06:54:40.044Z,3995
2017-09-23T06:55:10.896Z,4082
2017-09-23T06:55:40.944Z,4160
2017-09-23T06:56:11.804Z,4240
2017-09-23T06:56:41.810Z,4310
2017-09-23T06:57:12.647Z,4375
2017-09-23T06:57:42.751Z,4435
2017-09-23T06:58:13.600Z,4490
2017-09-23T06:58:43.630Z,4545
2017-09-23T06:59:14.488Z,4605
2017-09-23T06:59:44.517Z,4655
2017-09-23T07:00:15.366Z,4715
2017-09-23T07:00:45.488Z,4772
2017-09-23T07:01:16.333Z,4828
2017-09-23T07:01:46.375Z,4885
2017-09-23T07:02:17.197Z,4940
2017-09-23T07:02:47.233Z,4988
2017-09-23T07:03:18.047Z,5038
2017-09-23T07:03:48.117Z,5085
2017-09-23T07:04:19.026Z,5125
2017-09-23T07:04:49.046Z,5165
2017-09-23T07:05:19.838Z,5205
2017-09-23T07:05:49.924Z,5248
2017-09-23T07:06:20.796Z,5290
2017-09-23T07:06:50.856Z,5342
2017-09-23T07:07:21.704Z,5405
2017-09-23T07:07:51.740Z,5475
2017-09-23T07:08:22.630Z,5555
2017-09-23T07:08:52.654Z,5633
2017-09-23T07:09:23.484Z,5713
2017-09-23T07:09:53.558Z,5780
2017-09-23T07:10:24.409Z,5848
2017-09-23T07:10:54.500Z,5905
2017-09-23T07:11:25.347Z,5948
2017-09-23T07:11:55.361Z,5987
2017-09-23T07:12:26.199Z,6022
2017-09-23T07:12:56.193Z,6055
2017-09-23T07:13:27.142Z,6088
2017-09-23T07:13:57.109Z,6133
2017-09-23T07:14:28.015Z,6197
2017-09-23T07:14:58.056Z,6275
2017-09-23T07:15:28.894Z,6370
2017-09-23T07:15:58.994Z,6480
2017-09-23T07:16:29.887Z,6595
2017-09-23T07:16:59.914Z,6710
2017-09-23T07:17:30.730Z,6812
2017-09-23T07:18:00.790Z,6892
2017-09-23T07:18:31.670Z,6955
2017-09-23T07:19:01.679Z,7007
2017-09-23T07:19:32.535Z,7050
2017-09-23T07:20:02.619Z,7093
2017-09-23T07:20:33.466Z,7125
2017-09-23T07:21:03.544Z,7153
2017-09-23T07:21:34.364Z,7175
2017-09-23T07:22:04.418Z,7192
2017-09-23T07:22:35.208Z,7202
2017-09-23T07:23:05.257Z,7217
2017-09-23T07:23:36.173Z,7230
2017-09-23T07:24:06.184Z,7238
2017-09-23T07:24:37.036Z,7253
2017-09-23T07:25:07.105Z,7280
2017-09-23T07:25:37.924Z,7337
2017-09-23T07:26:08.204Z,7430
2017-09-23T07:26:38.806Z,7577
2017-09-23T07:27:08.861Z,7762
2017-09-23T07:27:39.764Z,7988
2017-09-23T07:28:09.807Z,8220
2017-09-23T07:28:40.619Z,8490
2017-09-23T07:29:10.637Z,8743
2017-09-23T07:29:41.562Z,9000
2017-09-23T07:30:11.585Z,9225
2017-09-23T07:30:42.451Z,9415
2017-09-23T07:31:12.530Z,9590
2017-09-23T07:31:43.355Z,9735
2017-09-23T07:32:13.368Z,9833
2017-09-23T07:32:44.278Z,9915
2017-09-23T07:33:14.265Z,9980
2017-09-23T07:33:45.138Z,10025
2017-09-23T07:34:15.240Z,10050
2017-09-23T07:34:46.073Z,10052
2017-09-23T07:35:16.141Z,10048
2017-09-23T07:35:46.911Z,10037
2017-09-23T07:36:16.944Z,10020
2017-09-23T07:36:47.852Z,10003
2017-09-23T07:37:17.840Z,9988
2017-09-23T07:37:48.770Z,9977
2017-09-23T07:38:49.668Z,9990
2017-09-23T07:39:19.662Z,10015
2017-09-23T07:39:50.577Z,10048
2017-09-23T07:40:20.545Z,10085
2017-09-23T07:40:51.460Z,10125
2017-09-23T07:41:23.019Z,10160
2017-09-23T07:41:52.379Z,10172
2017-09-23T07:42:22.395Z,10165
2017-09-23T07:42:53.212Z,10138
2017-09-23T07:43:23.254Z,10097
2017-09-23T07:43:54.169Z,10048
2017-09-23T07:44:24.208Z,9990
2017-09-23T07:44:55.028Z,9932
2017-09-23T07:45:25.080Z,9878
2017-09-23T07:45:55.918Z,9830
2017-09-23T07:46:26.224Z,9795
2017-09-23T07:46:56.847Z,9778
2017-09-23T07:47:57.810Z,9797
2017-09-23T07:48:27.735Z,9827
2017-09-23T07:48:58.680Z,9868
2017-09-23T07:49:28.644Z,9913
2017-09-23T07:49:59.618Z,9975
2017-09-23T07:50:29.591Z,10045
2017-09-23T07:51:00.652Z,10123
2017-09-23T07:51:30.553Z,10213
2017-09-23T07:52:01.376Z,10320
2017-09-23T07:52:31.387Z,10442
2017-09-23T07:53:02.294Z,10612
2017-09-23T07:53:32.241Z,10832
2017-09-23T07:54:03.145Z,11100
2017-09-23T07:54:33.206Z,11447
2017-09-23T07:55:04.073Z,11930
2017-09-23T07:55:34.104Z,12300
2017-09-23T07:56:04.948Z,13018
2017-09-23T07:56:35.054Z,14327
2017-09-23T07:57:05.865Z,15587
2017-09-23T07:57:35.844Z,15655
2017-09-23T07:58:06.769Z,15730
2017-09-23T07:58:36.797Z,15800
2017-09-23T07:59:07.624Z,15700
2017-09-23T07:59:37.719Z,15518
2017-09-23T08:00:08.590Z,15535
2017-09-23T08:00:38.615Z,15808
2017-09-23T08:01:09.468Z,16125
2017-09-23T08:01:39.584Z,16397
2017-09-23T08:02:10.431Z,16913
2017-09-23T08:02:40.385Z,17213
2017-09-23T08:03:11.272Z,17095
2017-09-23T08:03:41.365Z,17327
2017-09-23T08:04:12.197Z,17698
2017-09-23T08:04:42.243Z,17942
2017-09-23T08:05:13.119Z,18080
2017-09-23T08:05:43.180Z,17510
2017-09-23T08:06:13.949Z,16483
2017-09-23T08:06:44.036Z,15923
2017-09-23T08:07:14.905Z,15698
2017-09-23T08:07:44.929Z,15367
2017-09-23T08:08:15.825Z,15315
2017-09-23T08:08:45.849Z,15272
2017-09-23T08:09:16.680Z,15130
2017-09-23T08:09:46.738Z,15040
2017-09-23T08:10:17.624Z,14773
2017-09-23T08:10:47.640Z,14807
2017-09-23T08:11:18.474Z,15075
2017-09-23T08:11:48.533Z,15410
2017-09-23T08:12:19.413Z,15805
2017-09-23T08:12:49.441Z,16187
2017-09-23T08:13:20.358Z,16815
2017-09-23T08:13:50.330Z,17525
2017-09-23T08:14:21.170Z,17945
2017-09-23T08:14:51.231Z,17393
2017-09-23T08:15:22.063Z,16408
2017-09-23T08:15:52.167Z,15890
2017-09-23T08:16:22.981Z,15420
2017-09-23T08:16:53.056Z,15165
2017-09-23T08:17:23.852Z,14915
2017-09-23T08:17:53.940Z,14732
2017-09-23T08:18:24.827Z,14612
2017-09-23T08:18:54.844Z,14608
2017-09-23T08:19:25.643Z,14698
2017-09-23T08:19:55.707Z,14860
2017-09-23T08:20:26.587Z,15150
2017-09-23T08:20:56.614Z,15503
2017-09-23T08:21:27.496Z,15560
2017-09-23T08:21:57.531Z,15540
2017-09-23T08:22:28.381Z,15778
2017-09-23T08:22:58.397Z,16213
2017-09-23T08:23:29.287Z,16555
2017-09-23T08:23:59.319Z,16882
2017-09-23T08:24:30.225Z,17068
2017-09-23T08:25:00.217Z,16635
2017-09-23T08:25:31.104Z,16297
2017-09-23T08:26:01.099Z,16088
2017-09-23T08:26:31.979Z,15530
2017-09-23T08:27:02.100Z,15255
2017-09-23T08:27:32.872Z,15110
2017-09-23T08:28:02.918Z,14975
2017-09-23T08:28:33.774Z,14880
2017-09-23T08:29:03.788Z,14833
2017-09-23T08:29:34.664Z,14855
2017-09-23T08:30:04.671Z,14887
2017-09-23T08:30:35.585Z,14882
2017-09-23T08:31:05.605Z,14875
2017-09-23T08:31:36.484Z,14882
2017-09-23T08:32:07.998Z,14443
2017-09-23T08:32:37.383Z,14087
2017-09-23T08:33:07.436Z,13763
2017-09-23T08:33:38.253Z,13390
2017-09-23T08:34:08.270Z,13067
2017-09-23T08:34:39.213Z,12793
2017-09-23T08:35:09.205Z,12583
2017-09-23T08:35:40.087Z,12403
2017-09-23T08:36:10.119Z,12260
2017-09-23T08:36:40.956Z,12107
2017-09-23T08:37:11.019Z,12008
2017-09-23T08:37:41.880Z,11910
2017-09-23T08:38:11.935Z,11845
2017-09-23T08:38:42.770Z,11800
2017-09-23T08:39:12.829Z,11785
2017-09-23T08:39:43.730Z,11788
2017-09-23T08:40:13.749Z,11792
2017-09-23T08:40:44.630Z,11795
2017-09-23T08:41:14.628Z,11797
2017-09-23T08:41:45.503Z,11795
2017-09-23T08:42:15.634Z,11792
2017-09-23T08:42:46.387Z,11785
2017-09-23T08:43:16.476Z,11777
2017-09-23T08:43:47.335Z,11758
2017-09-23T08:44:17.364Z,11740
2017-09-23T08:44:48.212Z,11705
2017-09-23T08:45:18.273Z,11657
2017-09-23T08:45:49.132Z,11612
2017-09-23T08:46:19.145Z,11570
2017-09-23T08:46:49.985Z,11530
2017-09-23T08:47:20.080Z,11503
2017-09-23T08:47:50.929Z,11485
2017-09-23T08:48:51.802Z,11500
2017-09-23T08:49:21.865Z,11530
2017-09-23T08:49:52.720Z,11578
2017-09-23T08:50:22.733Z,11635
2017-09-23T08:50:53.594Z,11700
2017-09-23T08:51:23.627Z,11777
2017-09-23T08:51:54.470Z,11857
2017-09-23T08:52:24.618Z,11940
2017-09-23T08:52:55.365Z,12008
2017-09-23T08:53:25.405Z,12080
2017-09-23T08:53:56.347Z,12145
2017-09-23T08:54:26.344Z,12200
2017-09-23T08:54:57.216Z,12265
2017-09-23T08:55:27.207Z,12320
2017-09-23T08:55:58.064Z,12377
2017-09-23T08:56:28.166Z,12430
2017-09-23T08:56:58.972Z,12485
2017-09-23T08:57:29.053Z,12547
2017-09-23T08:57:59.897Z,12617
2017-09-23T08:58:29.950Z,12690
2017-09-23T08:59:00.765Z,12763
2017-09-23T08:59:30.893Z,12847
2017-09-23T09:00:01.702Z,12938
2017-09-23T09:00:31.761Z,13027
2017-09-23T09:01:02.624Z,13103
2017-09-23T09:01:32.625Z,13192
2017-09-23T09:02:03.528Z,13310
2017-09-23T09:02:33.657Z,13438
2017-09-23T09:03:04.416Z,13543
2017-09-23T09:03:34.432Z,13558
2017-09-23T09:04:05.276Z,13532
2017-09-23T09:04:35.278Z,13478
2017-09-23T09:05:06.224Z,13400
2017-09-23T09:05:36.222Z,13340
2017-09-23T09:06:07.103Z,13285
2017-09-23T09:06:37.161Z,13243
2017-09-23T09:07:07.945Z,13228
2017-09-23T09:07:38.099Z,13215
2017-09-23T09:08:08.896Z,13210
2017-09-23T09:08:38.916Z,13215
2017-09-23T09:09:09.760Z,13217
2017-09-23T09:09:39.801Z,13225
2017-09-23T09:10:10.703Z,13232
2017-09-23T09:10:40.674Z,13238
2017-09-23T09:12:12.479Z,13235
2017-09-23T09:12:42.541Z,13217
2017-09-23T09:13:13.397Z,13180
2017-09-23T09:13:43.393Z,13142
2017-09-23T09:14:14.337Z,13105
2017-09-23T09:14:44.358Z,13065
2017-09-23T09:15:15.205Z,13027
2017-09-23T09:15:45.199Z,12995
2017-09-23T09:16:16.100Z,12965
2017-09-23T09:16:46.145Z,12940
2017-09-23T09:17:16.957Z,12917
2017-09-23T09:17:47.057Z,12902
2017-09-23T09:18:17.897Z,12895
2017-09-23T09:19:48.843Z,12898
2017-09-23T09:20:49.698Z,12895
2017-09-23T09:21:20.595Z,12900
2017-09-23T09:21:50.630Z,12910
2017-09-23T09:22:21.436Z,12923
2017-09-23T09:22:51.585Z,12943
2017-09-23T09:23:22.351Z,12980
2017-09-23T09:23:52.397Z,12988
2017-09-23T09:24:23.235Z,12950
2017-09-23T09:24:53.324Z,13012
2017-09-23T09:25:24.199Z,12940
2017-09-23T09:25:54.188Z,12898
2017-09-23T09:26:25.047Z,12878
2017-09-23T09:26:55.122Z,12865
2017-09-23T09:27:25.924Z,12855
2017-09-23T09:27:56.081Z,12850
2017-09-23T09:28:26.872Z,12840
2017-09-23T09:28:56.918Z,12830
2017-09-23T09:29:27.716Z,12823
2017-09-23T09:29:57.819Z,12815
2017-09-23T09:30:28.665Z,12810
2017-09-23T09:30:58.728Z,12805
2017-09-23T09:31:29.561Z,12800
2017-09-23T09:33:00.669Z,12802
2017-09-23T09:33:31.309Z,12818
2017-09-23T09:34:01.342Z,12838
2017-09-23T09:34:32.206Z,12857
2017-09-23T09:35:02.274Z,12883
2017-09-23T09:35:33.165Z,12915
2017-09-23T09:36:03.223Z,12947
2017-09-23T09:36:34.066Z,12975
2017-09-23T09:37:04.042Z,13005
2017-09-23T09:37:34.907Z,13040
2017-09-23T09:38:05.090Z,13075
2017-09-23T09:38:35.808Z,13178
2017-09-23T09:39:05.862Z,13147
2017-09-23T09:39:36.777Z,13185
2017-09-23T09:40:06.783Z,13217
2017-09-23T09:40:37.673Z,13255
2017-09-23T09:41:07.643Z,13290
2017-09-23T09:41:38.533Z,13330
2017-09-23T09:42:08.595Z,13372
2017-09-23T09:42:39.448Z,13420
2017-09-23T09:43:09.517Z,13470
2017-09-23T09:43:40.347Z,13513
2017-09-23T09:44:10.589Z,13545
2017-09-23T09:44:41.247Z,13583
2017-09-23T09:45:11.261Z,13618
2017-09-23T09:45:42.144Z,13648
2017-09-23T09:46:12.154Z,13678
2017-09-23T09:46:43.045Z,13708
2017-09-23T09:47:13.089Z,13732
2017-09-23T09:47:43.917Z,13760
2017-09-23T09:48:13.962Z,13777
2017-09-23T09:48:44.840Z,13805
2017-09-23T09:49:14.872Z,13823
2017-09-23T09:49:45.820Z,13852
2017-09-23T09:50:15.781Z,13870
2017-09-23T09:50:46.653Z,13885
2017-09-23T09:51:16.698Z,13910
2017-09-23T09:51:47.555Z,13925
2017-09-23T09:52:17.573Z,13940
2017-09-23T09:52:48.453Z,13965
2017-09-23T09:53:18.513Z,13970
2017-09-23T09:53:49.331Z,13963
2017-09-23T09:54:19.394Z,13950
2017-09-23T09:54:50.193Z,13943
2017-09-23T09:55:51.165Z,13957
2017-09-23T09:56:21.185Z,13980
2017-09-23T09:56:52.065Z,14005
2017-09-23T09:57:22.046Z,14032
2017-09-23T09:57:52.929Z,14085
2017-09-23T09:58:22.956Z,14137
2017-09-23T09:58:53.855Z,14205
2017-09-23T09:59:23.861Z,14295
2017-09-23T09:59:54.737Z,14415
2017-09-23T10:00:24.719Z,14550
2017-09-23T10:00:55.663Z,14672
2017-09-23T10:01:25.635Z,14760
2017-09-23T10:01:56.515Z,14777
2017-09-23T10:02:26.542Z,14740
2017-09-23T10:02:57.461Z,14683
2017-09-23T10:03:27.519Z,14618
2017-09-23T10:03:58.364Z,14557
2017-09-23T10:04:28.391Z,14505
2017-09-23T10:04:59.267Z,14450
2017-09-23T10:05:29.291Z,14380
2017-09-23T10:06:00.176Z,14338
2017-09-23T10:06:30.170Z,14320
2017-09-23T10:07:00.993Z,14330
2017-09-23T10:07:31.060Z,14327
2017-09-23T10:08:01.882Z,14338
2017-09-23T10:08:31.974Z,14355
2017-09-23T10:09:02.827Z,14387
2017-09-23T10:09:32.879Z,14440
2017-09-23T10:10:03.755Z,14497
2017-09-23T10:10:33.761Z,14530
2017-09-23T10:11:04.637Z,14605
2017-09-23T10:11:34.624Z,14685
2017-09-23T10:12:05.533Z,14780
2017-09-23T10:12:35.568Z,14885
2017-09-23T10:13:06.454Z,15000
2017-09-23T10:13:36.516Z,15105
2017-09-23T10:14:07.342Z,15202
2017-09-23T10:14:37.340Z,15320
2017-09-23T10:15:08.233Z,15392
2017-09-23T10:15:38.224Z,15415
2017-09-23T10:16:09.197Z,15425
2017-09-23T10:16:39.201Z,15463
2017-09-23T10:17:10.034Z,15510
2017-09-23T10:17:40.061Z,15523
2017-09-23T10:18:10.892Z,15538
2017-09-23T10:18:40.995Z,15568
2017-09-23T10:19:11.862Z,15610
2017-09-23T10:19:41.890Z,15667
2017-09-23T10:20:12.743Z,15712
2017-09-23T10:20:42.754Z,15763
2017-09-23T10:21:13.689Z,15840
2017-09-23T10:21:43.680Z,15902
2017-09-23T10:22:14.549Z,15985
2017-09-23T10:22:44.577Z,16067
2017-09-23T10:23:15.439Z,16165
2017-09-23T10:23:45.530Z,16268
2017-09-23T10:24:16.319Z,16372
2017-09-23T10:24:46.354Z,16480
2017-09-23T10:25:17.216Z,16637
2017-09-23T10:25:47.248Z,16858
2017-09-23T10:26:18.167Z,17075
2017-09-23T10:26:48.189Z,17200
2017-09-23T10:27:19.008Z,17280
2017-09-23T10:27:49.105Z,17357
2017-09-23T10:28:19.924Z,17140
2017-09-23T10:28:49.991Z,16952
2017-09-23T10:29:20.873Z,16738
2017-09-23T10:29:50.876Z,16520
2017-09-23T10:30:21.754Z,16268
2017-09-23T10:30:51.801Z,16048
2017-09-23T10:31:22.646Z,15842
2017-09-23T10:31:52.670Z,15677
2017-09-23T10:32:23.549Z,15527
2017-09-23T10:32:53.613Z,15373
2017-09-23T10:33:24.483Z,15205
2017-09-23T10:33:54.555Z,15028
2017-09-23T10:34:25.365Z,14833
2017-09-23T10:34:55.372Z,14633
2017-09-23T10:35:26.265Z,14422
2017-09-23T10:35:56.294Z,14237
2017-09-23T10:36:27.103Z,14060
2017-09-23T10:36:57.166Z,13935
2017-09-23T10:37:28.114Z,13873
2017-09-23T10:37:58.075Z,13900
2017-09-23T10:38:28.895Z,14000
2017-09-23T10:38:59.078Z,14182
2017-09-23T10:39:29.849Z,14443
2017-09-23T10:39:59.823Z,14765
2017-09-23T10:40:30.779Z,15120
2017-09-23T10:41:00.722Z,15452
2017-09-23T10:41:31.594Z,15760
2017-09-23T10:42:01.666Z,16000
2017-09-23T10:42:32.554Z,16123
2017-09-23T10:43:02.579Z,16093
2017-09-23T10:43:33.439Z,15870
2017-09-23T10:44:03.717Z,15527
2017-09-23T10:44:34.355Z,15165
2017-09-23T10:45:04.402Z,14875
2017-09-23T10:45:35.235Z,14657
2017-09-23T10:46:05.254Z,14510
2017-09-23T10:46:36.138Z,14387
2017-09-23T10:47:06.202Z,14345
2017-09-23T10:47:37.077Z,14342
2017-09-23T10:48:07.215Z,14408
2017-09-23T10:48:37.987Z,14548
2017-09-23T10:49:08.007Z,14650
2017-09-23T10:49:39.002Z,14567
2017-09-23T10:50:09.088Z,14290
2017-09-23T10:50:39.893Z,13888
2017-09-23T10:51:09.926Z,13440
2017-09-23T10:51:40.742Z,12985
2017-09-23T10:52:10.771Z,12585
2017-09-23T10:52:41.692Z,12223
2017-09-23T10:53:11.672Z,11942
2017-09-23T10:53:42.597Z,11715
2017-09-23T10:54:12.604Z,11560
2017-09-23T10:54:43.470Z,11455
2017-09-23T10:55:13.515Z,11423
2017-09-23T10:55:44.357Z,11462
2017-09-23T10:56:14.401Z,11533
2017-09-23T10:56:45.308Z,11590
2017-09-23T10:57:15.285Z,11633
2017-09-23T10:57:46.192Z,11710
2017-09-23T10:58:16.226Z,11720
2017-09-23T10:58:47.098Z,11680
2017-09-23T10:59:17.055Z,11653
2017-09-23T10:59:47.997Z,11662
2017-09-23T11:00:18.018Z,11732
2017-09-23T11:00:48.887Z,11813
2017-09-23T11:01:18.929Z,11957
2017-09-23T11:01:49.724Z,12202
2017-09-23T11:02:19.760Z,12467
2017-09-23T11:02:50.688Z,12725
2017-09-23T11:03:20.662Z,13082
2017-09-23T11:03:51.597Z,13500
2017-09-23T11:04:21.575Z,13760
2017-09-23T11:04:52.469Z,13940
2017-09-23T11:05:22.522Z,14077
2017-09-23T11:05:53.385Z,14248
2017-09-23T11:06:23.405Z,14320
2017-09-23T11:06:54.288Z,14282
2017-09-23T11:07:24.245Z,14177
2017-09-23T11:07:55.173Z,14048
2017-09-23T11:08:25.146Z,13907
2017-09-23T11:08:56.020Z,13742
2017-09-23T11:09:26.138Z,13570
2017-09-23T11:09:56.958Z,13385
2017-09-23T11:10:26.982Z,13202
2017-09-23T11:10:57.891Z,13025
2017-09-23T11:11:27.934Z,12845
2017-09-23T11:11:58.726Z,12677
2017-09-23T11:12:28.747Z,12510
2017-09-23T11:12:59.668Z,12335
2017-09-23T11:13:29.688Z,12185
2017-09-23T11:14:00.633Z,12125
2017-09-23T11:14:30.614Z,12130
2017-09-23T11:15:01.535Z,12193
2017-09-23T11:15:31.501Z,12283
2017-09-23T11:16:02.378Z,12390
2017-09-23T11:16:32.406Z,12570
2017-09-23T11:17:03.283Z,12973
2017-09-23T11:17:33.272Z,20645
2017-09-23T11:18:04.145Z,22070
2017-09-23T11:18:34.169Z,17795
2017-09-23T11:19:05.036Z,17760
2017-09-23T11:19:35.047Z,18320
2017-09-23T11:20:05.977Z,17647
2017-09-23T11:20:37.542Z,29955
2017-09-23T11:21:06.841Z,30148
2017-09-23T11:21:36.899Z,30545
2017-09-23T11:22:07.767Z,30740
2017-09-23T11:22:37.746Z,30810
2017-09-23T11:23:08.681Z,30830
2017-09-23T11:23:38.690Z,30930
2017-09-23T11:24:09.562Z,31220
2017-09-23T11:24:39.608Z,31200
2017-09-23T11:25:10.483Z,31318
2017-09-23T11:25:40.468Z,31310
2017-09-23T11:26:11.392Z,31282
2017-09-23T11:26:41.368Z,31640
2017-09-23T11:27:12.210Z,31847
2017-09-23T11:27:42.237Z,32057
2017-09-23T11:28:13.163Z,31935
2017-09-23T11:28:43.194Z,31860
2017-09-23T11:29:14.005Z,31670
2017-09-23T11:29:44.033Z,31592
2017-09-23T11:30:14.936Z,31732
2017-09-23T11:30:45.006Z,31560
2017-09-23T11:31:15.878Z,31630
2017-09-23T11:31:45.893Z,31390
2017-09-23T11:32:16.727Z,31410
2017-09-23T11:32:46.750Z,31502
2017-09-23T11:33:17.674Z,31378
2017-09-23T11:33:47.698Z,31478
2017-09-23T11:34:18.547Z,31642